SLET/SRZ METAR and TAF weather

Enter ICAO airport designator
Station Type Date Time Source
SLET METAR 2019/12/08 11:00 UTC NOAA

SLET 081100Z 31011G22KT 9999 BKN008 BKN070 23/22 Q1008


Station Type Date Time Source
SLET Decoded METAR 2019/12/08 11:00 UTC NOAA

Santa Cruz / El Trompillo, Bolivia (SLET) 17-48S 063-11W 414M
Dec 08, 2019 - 06:00 AM EST / 2019.12.08 1100 UTC
Wind: from the NW (310 degrees) at 13 MPH (11 KT) gusting to 25 MPH (22 KT):0
Visibility: greater than 7 mile(s):0
Sky conditions: mostly cloudy
Temperature: 73 F (23 C)
Dew Point: 71 F (22 C)
Relative Humidity: 94%
Pressure (altimeter): 29.77 in. Hg (1008 hPa)
ob: SLET 081100Z 31011G22KT 9999 BKN008 BKN070 23/22 Q1008
cycle: 11

Station Type Date Time Source
SLET TAF 2019/12/08 12:42 UTC NOAA

TAF SLET 081000Z 0812/0912 31010G23KT 9999 BKN010 FEW030CB TX28/0819Z TN22/0910Z PROB40
TEMPO 0814/0817 8000 SHRA BKN015 FEW030CB BKN070
BECMG 0820/0823 SCT020 BKN070
BECMG 0902/0905 33012KT SCT017 SCT070

Example: see airport list